createdAt,value
2023-01-13T00:01:26.353Z,1.00
2023-01-13T00:03:53.840Z,0.90
2023-01-13T00:06:25.965Z,1.10
2023-01-13T00:08:54.424Z,1.10
2023-01-13T00:11:22.128Z,1.65
2023-01-13T00:13:49.789Z,2.00
2023-01-13T00:16:18.408Z,0.80
2023-01-13T00:18:47.232Z,0.77
2023-01-13T00:21:17.701Z,1.50
2023-01-13T00:23:46.509Z,1.50
2023-01-13T00:26:17.709Z,0.82
2023-01-13T00:28:45.673Z,1.00
2023-01-13T00:31:16.287Z,0.90
2023-01-13T00:33:44.068Z,0.85
2023-01-13T00:36:14.812Z,1.00
2023-01-13T00:38:43.432Z,0.88
2023-01-13T00:41:16.990Z,0.73
2023-01-13T00:43:45.484Z,1.00
2023-01-13T00:46:16.298Z,0.60
2023-01-13T00:48:43.916Z,0.70
2023-01-13T00:51:15.071Z,0.70
2023-01-13T00:53:45.944Z,0.80
2023-01-13T00:56:24.420Z,0.90
2023-01-13T00:58:58.896Z,1.50
2023-01-13T01:01:26.705Z,0.70
2023-01-13T01:03:55.181Z,0.80
2023-01-13T01:06:26.055Z,0.80
2023-01-13T01:08:55.776Z,1.00
2023-01-13T01:11:26.858Z,1.10
2023-01-13T01:13:56.291Z,1.00
2023-01-13T01:16:25.600Z,1.02
2023-01-13T01:18:54.712Z,1.30
2023-01-13T01:21:24.986Z,1.52
2023-01-13T01:23:52.915Z,1.60
2023-01-13T01:26:23.215Z,2.03
2023-01-13T01:28:51.340Z,2.08
2023-01-13T01:31:21.394Z,1.92
2023-01-13T01:33:50.198Z,2.38
2023-01-13T01:36:20.549Z,2.65
2023-01-13T01:38:49.608Z,3.00
2023-01-13T01:41:25.895Z,3.25
2023-01-13T01:44:02.888Z,2.70
2023-01-13T01:46:42.250Z,3.05
2023-01-13T01:49:25.063Z,3.55
2023-01-13T01:51:57.627Z,3.20
2023-01-13T01:54:38.474Z,3.33
2023-01-13T01:57:09.503Z,3.35
2023-01-13T01:59:39.035Z,3.08
2023-01-13T02:02:06.982Z,3.10
2023-01-13T02:04:40.128Z,2.90
2023-01-13T02:07:08.569Z,2.97
2023-01-13T02:09:36.835Z,1.93
2023-01-13T02:12:23.143Z,2.67
2023-01-13T02:14:50.961Z,2.28
2023-01-13T02:17:33.901Z,2.28
2023-01-13T02:20:19.679Z,1.85
2023-01-13T02:23:40.187Z,2.00
2023-01-13T02:26:38.425Z,1.85
2023-01-13T02:29:42.839Z,1.58
2023-01-13T02:32:24.010Z,1.45
2023-01-13T02:35:18.346Z,1.58
2023-01-13T02:37:46.662Z,1.58
2023-01-13T02:40:27.232Z,1.40
2023-01-13T02:43:50.979Z,1.50
2023-01-13T02:46:32.610Z,1.40
2023-01-13T02:49:06.685Z,1.10
2023-01-13T02:51:35.572Z,1.30
2023-01-13T02:56:44.890Z,1.10
2023-01-13T02:59:14.165Z,1.10
2023-01-13T03:01:43.052Z,1.10
2023-01-13T03:04:15.376Z,0.93
2023-01-13T03:07:01.658Z,1.33
2023-01-13T03:09:35.622Z,1.20
2023-01-13T03:12:23.000Z,1.20
2023-01-13T03:15:18.210Z,1.02
2023-01-13T03:18:06.173Z,1.00
2023-01-13T03:20:39.301Z,0.90
2023-01-13T03:23:19.385Z,1.40
2023-01-13T03:26:02.177Z,1.50
2023-01-13T03:28:36.491Z,1.30
2023-01-13T03:31:10.985Z,2.13
2023-01-13T03:33:45.859Z,2.08
2023-01-13T03:36:17.096Z,2.28
2023-01-13T03:38:51.964Z,2.40
2023-01-13T03:41:46.117Z,2.30
2023-01-13T03:44:32.853Z,2.95
2023-01-13T03:47:13.553Z,2.75
2023-01-13T03:49:49.871Z,2.85
2023-01-13T03:52:26.370Z,2.95
2023-01-13T03:55:07.722Z,2.78
2023-01-13T03:57:41.905Z,3.03
2023-01-13T04:00:14.515Z,3.05
2023-01-13T04:02:51.437Z,2.65
2023-01-13T04:05:19.540Z,3.70
2023-01-13T04:07:56.375Z,3.00
2023-01-13T04:10:45.403Z,3.40
2023-01-13T04:13:17.928Z,3.67
2023-01-13T04:15:46.453Z,3.95
2023-01-13T04:18:20.368Z,3.92
2023-01-13T04:20:50.531Z,3.92
2023-01-13T04:23:20.021Z,3.97
2023-01-13T04:25:47.908Z,4.05
2023-01-13T04:28:16.230Z,4.20
2023-01-13T04:30:44.752Z,3.10
2023-01-13T04:33:13.983Z,2.95
2023-01-13T04:35:42.345Z,4.35
2023-01-13T04:38:14.877Z,2.73
2023-01-13T04:40:43.199Z,3.90
2023-01-13T04:43:11.198Z,4.10
2023-01-13T04:45:39.084Z,4.40
2023-01-13T04:48:07.586Z,3.90
2023-01-13T04:50:35.679Z,4.05
2023-01-13T04:53:03.609Z,4.57
2023-01-13T04:55:32.162Z,4.60
2023-01-13T04:58:07.579Z,3.53
2023-01-13T05:00:36.491Z,4.95
2023-01-13T05:03:04.579Z,4.80
2023-01-13T05:05:32.646Z,4.60
2023-01-13T05:08:00.208Z,5.00
2023-01-13T05:10:27.788Z,5.45
2023-01-13T05:13:14.132Z,5.30
2023-01-13T05:16:01.005Z,5.15
2023-01-13T05:18:30.944Z,5.32
2023-01-13T05:20:58.446Z,6.35
2023-01-13T05:23:44.202Z,6.32
2023-01-13T05:26:11.939Z,6.72
2023-01-13T05:28:39.665Z,6.00
2023-01-13T05:31:07.614Z,7.05
2023-01-13T05:33:35.987Z,6.38
2023-01-13T05:36:04.106Z,6.90
2023-01-13T05:38:31.993Z,7.40
2023-01-13T05:41:18.941Z,6.38
2023-01-13T05:43:46.450Z,6.60
2023-01-13T05:46:14.971Z,6.35
2023-01-13T05:48:43.406Z,4.93
2023-01-13T05:51:12.610Z,7.38
2023-01-13T05:56:09.549Z,5.10
2023-01-13T05:58:37.991Z,6.60
2023-01-13T06:01:08.571Z,5.15
2023-01-13T06:03:37.407Z,7.00
2023-01-13T06:06:06.047Z,6.00
2023-01-13T06:08:33.595Z,5.03
2023-01-13T06:11:01.328Z,6.18
2023-01-13T06:13:29.245Z,6.80
2023-01-13T06:15:58.496Z,6.13
2023-01-13T06:18:27.116Z,5.75
2023-01-13T06:20:55.432Z,5.57
2023-01-13T06:23:23.559Z,4.30
2023-01-13T06:25:55.706Z,5.97
2023-01-13T06:28:23.236Z,5.82
2023-01-13T06:30:55.814Z,6.03
2023-01-13T06:33:33.149Z,5.95
2023-01-13T06:36:05.904Z,5.53
2023-01-13T06:38:37.578Z,5.78
2023-01-13T06:41:07.845Z,5.85
2023-01-13T06:43:35.887Z,6.40
2023-01-13T06:46:04.671Z,6.57
2023-01-13T06:48:35.421Z,6.40
2023-01-13T06:51:05.002Z,8.23
2023-01-13T06:53:33.067Z,8.88
2023-01-13T06:56:00.496Z,8.75
2023-01-13T06:58:28.310Z,10.02
2023-01-13T07:01:00.535Z,10.10
2023-01-13T07:03:28.458Z,9.52
2023-01-13T07:05:57.488Z,8.65
2023-01-13T07:08:25.020Z,8.77
2023-01-13T07:10:53.201Z,8.38
2023-01-13T07:13:50.302Z,7.30
2023-01-13T07:16:17.875Z,7.93
2023-01-13T07:18:45.554Z,8.75
2023-01-13T07:21:13.667Z,8.50
2023-01-13T07:23:42.001Z,10.00
2023-01-13T07:26:10.908Z,10.60
2023-01-13T07:31:17.146Z,9.15
2023-01-13T07:33:45.040Z,6.95
2023-01-13T07:36:13.542Z,7.00
2023-01-13T07:38:44.285Z,6.78
2023-01-13T07:41:33.546Z,6.47
2023-01-13T07:44:04.932Z,5.50
2023-01-13T07:46:33.807Z,4.93
2023-01-13T07:51:30.520Z,5.55
2023-01-13T07:53:58.411Z,5.35
2023-01-13T07:56:25.939Z,4.93
2023-01-13T07:58:53.534Z,5.20
2023-01-13T08:01:21.804Z,4.60
2023-01-13T08:03:49.591Z,5.50
2023-01-13T08:06:17.094Z,5.20
2023-01-13T08:08:44.920Z,4.40
2023-01-13T08:11:12.685Z,4.70
2023-01-13T08:13:40.156Z,4.00
2023-01-13T08:16:11.244Z,4.38
2023-01-13T08:18:39.952Z,3.60
2023-01-13T08:21:13.652Z,3.33
2023-01-13T08:23:43.414Z,3.70
2023-01-13T08:26:13.999Z,3.58
2023-01-13T08:28:41.878Z,3.75
2023-01-13T08:31:16.175Z,2.80
2023-01-13T08:33:44.152Z,2.50
2023-01-13T08:36:12.490Z,2.53
2023-01-13T08:38:41.277Z,2.15
2023-01-13T08:41:12.572Z,2.30
2023-01-13T08:43:40.794Z,2.85
2023-01-13T08:46:08.471Z,2.35
2023-01-13T08:48:36.238Z,2.28
2023-01-13T08:51:07.024Z,1.90
2023-01-13T08:53:35.154Z,2.25
2023-01-13T08:56:10.949Z,1.98
2023-01-13T08:58:38.972Z,2.00
2023-01-13T09:01:08.724Z,1.77
2023-01-13T09:03:36.263Z,1.98
2023-01-13T09:06:04.387Z,2.00
2023-01-13T09:08:32.142Z,2.10
2023-01-13T09:10:59.776Z,2.10
2023-01-13T09:13:27.534Z,1.90
2023-01-13T09:15:56.911Z,1.80
2023-01-13T09:18:24.593Z,1.50
2023-01-13T09:20:52.525Z,1.92
2023-01-13T09:23:21.403Z,1.50
2023-01-13T09:25:49.338Z,1.48
2023-01-13T09:28:17.058Z,1.60
2023-01-13T09:30:44.701Z,1.83
2023-01-13T09:33:30.867Z,1.73
2023-01-13T09:35:59.342Z,2.17
2023-01-13T09:38:27.479Z,1.20
2023-01-13T09:40:55.779Z,1.30
2023-01-13T09:43:53.194Z,1.33
2023-01-13T09:46:43.053Z,1.40
2023-01-13T09:49:20.846Z,4.38
2023-01-13T09:52:06.992Z,5.32
2023-01-13T09:54:41.829Z,3.20
2023-01-13T09:57:15.041Z,1.90
2023-01-13T09:59:44.079Z,3.00
2023-01-13T10:02:29.305Z,2.45
2023-01-13T10:05:04.643Z,1.40
2023-01-13T10:07:36.864Z,1.30
2023-01-13T10:10:10.748Z,1.40
2023-01-13T10:12:57.339Z,1.90
2023-01-13T10:15:26.673Z,2.53
2023-01-13T10:18:05.799Z,2.85
2023-01-13T10:20:40.001Z,3.67
2023-01-13T10:23:39.068Z,3.60
2023-01-13T10:26:25.359Z,3.83
2023-01-13T10:28:54.938Z,5.35
2023-01-13T10:31:23.922Z,2.70
2023-01-13T10:34:04.128Z,2.70
2023-01-13T10:36:31.929Z,2.78
2023-01-13T10:39:16.044Z,2.40
2023-01-13T10:41:44.694Z,2.33
2023-01-13T10:44:17.195Z,2.08
2023-01-13T10:46:56.964Z,2.22
2023-01-13T10:49:33.636Z,2.35
2023-01-13T10:52:02.927Z,2.97
2023-01-13T10:54:31.197Z,2.78
2023-01-13T10:57:20.099Z,5.43
2023-01-13T10:59:49.016Z,3.60
2023-01-13T11:02:25.405Z,3.33
2023-01-13T11:04:53.650Z,3.25
2023-01-13T11:07:27.456Z,2.40
2023-01-13T11:10:08.927Z,2.72
2023-01-13T11:13:03.908Z,3.00
2023-01-13T11:15:54.009Z,2.90
2023-01-13T11:19:02.011Z,3.20
2023-01-13T11:21:38.918Z,2.65
2023-01-13T11:24:14.807Z,3.03
2023-01-13T11:26:55.611Z,3.00
2023-01-13T11:29:31.989Z,4.22
2023-01-13T11:32:10.810Z,3.53
2023-01-13T11:34:42.046Z,3.60
2023-01-13T11:37:17.981Z,3.40
2023-01-13T11:39:56.313Z,3.17
2023-01-13T11:42:46.527Z,3.17
2023-01-13T11:45:34.886Z,3.92
2023-01-13T11:48:02.842Z,2.75
2023-01-13T11:50:51.342Z,4.00
2023-01-13T11:53:34.456Z,2.90
2023-01-13T11:56:35.682Z,4.50
2023-01-13T11:59:38.753Z,3.47
2023-01-13T12:02:15.796Z,3.40
2023-01-13T12:05:08.234Z,3.72
2023-01-13T12:08:00.703Z,3.28
2023-01-13T12:10:46.461Z,3.40
2023-01-13T12:13:32.460Z,3.70
2023-01-13T12:16:30.582Z,3.60
2023-01-13T12:19:24.671Z,3.65
2023-01-13T12:22:09.227Z,3.80
2023-01-13T12:24:55.209Z,4.35
2023-01-13T12:27:41.685Z,3.70
2023-01-13T12:30:37.101Z,4.47
2023-01-13T12:33:38.960Z,4.38
2023-01-13T12:36:17.946Z,6.65
2023-01-13T12:38:49.334Z,4.10
2023-01-13T12:41:34.628Z,4.47
2023-01-13T12:44:18.303Z,4.45
2023-01-13T12:46:56.307Z,4.78
2023-01-13T12:49:34.672Z,4.20
2023-01-13T12:52:13.917Z,4.38
2023-01-13T12:57:24.330Z,4.20
2023-01-13T12:59:59.483Z,3.72
2023-01-13T13:02:30.152Z,4.25
2023-01-13T13:05:19.698Z,3.92
2023-01-13T13:08:25.466Z,4.10
2023-01-13T13:11:48.393Z,4.80
2023-01-13T13:14:36.104Z,4.28
2023-01-13T13:17:29.613Z,4.15
2023-01-13T13:19:59.620Z,3.97
2023-01-13T13:22:27.030Z,4.50
2023-01-13T13:24:54.669Z,4.10
2023-01-13T13:27:38.554Z,4.20
2023-01-13T13:30:33.734Z,4.32
2023-01-13T13:33:40.763Z,3.95
2023-01-13T13:36:21.850Z,4.28
2023-01-13T13:39:29.146Z,12.63
2023-01-13T13:42:28.606Z,4.40
2023-01-13T13:45:15.974Z,4.10
2023-01-13T13:47:43.909Z,4.53
2023-01-13T13:50:23.825Z,4.53
2023-01-13T13:53:08.389Z,4.90
2023-01-13T13:55:36.819Z,5.72
2023-01-13T13:58:04.576Z,6.07
2023-01-13T14:00:36.871Z,4.57
2023-01-13T14:03:19.442Z,4.15
2023-01-13T14:06:02.733Z,3.95
2023-01-13T14:08:34.689Z,10.05
2023-01-13T14:11:02.508Z,9.70
2023-01-13T14:13:31.469Z,6.20
2023-01-13T14:16:01.400Z,4.85
2023-01-13T14:18:32.094Z,5.22
2023-01-13T14:21:04.598Z,4.60
2023-01-13T14:23:34.849Z,5.07
2023-01-13T14:26:08.715Z,5.03
2023-01-13T14:28:40.942Z,4.60
2023-01-13T14:31:10.631Z,4.68
2023-01-13T14:33:43.658Z,5.10
2023-01-13T14:36:22.524Z,4.90
2023-01-13T14:39:05.266Z,5.75
2023-01-13T14:41:36.112Z,5.97
2023-01-13T14:44:29.057Z,4.88
2023-01-13T14:47:00.495Z,5.88
2023-01-13T14:49:39.427Z,6.00
2023-01-13T14:54:53.307Z,7.75
2023-01-13T14:57:34.529Z,5.82
2023-01-13T15:00:13.880Z,6.85
2023-01-13T15:02:47.590Z,6.90
2023-01-13T15:05:22.546Z,6.22
2023-01-13T15:07:54.639Z,8.15
2023-01-13T15:10:34.881Z,7.53
2023-01-13T15:13:05.657Z,8.23
2023-01-13T15:15:36.145Z,8.45
2023-01-13T15:18:14.256Z,8.05
2023-01-13T15:20:42.803Z,8.57
2023-01-13T15:23:11.390Z,8.07
2023-01-13T15:25:41.472Z,6.40
2023-01-13T15:28:22.243Z,9.20
2023-01-13T15:30:51.729Z,9.88
2023-01-13T15:35:50.116Z,10.52
2023-01-13T15:38:21.051Z,9.50
2023-01-13T15:40:49.556Z,9.43
2023-01-13T15:43:41.581Z,9.73
2023-01-13T15:46:39.074Z,12.20
2023-01-13T15:49:45.230Z,10.55
2023-01-13T15:52:26.645Z,10.77
2023-01-13T15:54:54.833Z,9.15
2023-01-13T15:57:31.835Z,10.20
2023-01-13T16:00:02.685Z,9.43
2023-01-13T16:02:31.490Z,9.98
2023-01-13T16:04:59.667Z,10.25
2023-01-13T16:07:27.192Z,9.48
2023-01-13T16:09:55.011Z,8.68
2023-01-13T16:12:22.975Z,8.25
2023-01-13T16:14:50.717Z,9.32
2023-01-13T16:17:21.142Z,6.32
2023-01-13T16:19:49.814Z,7.15
2023-01-13T16:22:18.339Z,4.95
2023-01-13T16:24:45.834Z,6.05
2023-01-13T16:27:17.480Z,5.85
2023-01-13T16:29:47.979Z,5.10
2023-01-13T16:32:17.632Z,4.15
2023-01-13T16:34:45.511Z,5.18
2023-01-13T16:37:24.931Z,4.90
2023-01-13T16:39:54.262Z,4.88
2023-01-13T16:42:22.180Z,5.18
2023-01-13T16:44:50.812Z,5.72
2023-01-13T16:47:19.242Z,4.18
2023-01-13T16:49:48.994Z,4.60
2023-01-13T16:52:16.791Z,3.70
2023-01-13T16:54:44.321Z,3.78
2023-01-13T16:57:15.181Z,3.70
2023-01-13T16:59:42.845Z,3.50
2023-01-13T17:02:15.046Z,3.67
2023-01-13T17:04:43.492Z,3.38
2023-01-13T17:07:16.659Z,3.73
2023-01-13T17:09:44.743Z,3.42
2023-01-13T17:12:12.203Z,3.85
2023-01-13T17:14:40.146Z,4.10
2023-01-13T17:17:25.661Z,2.87
2023-01-13T17:19:54.099Z,4.88
2023-01-13T17:22:22.892Z,3.63
2023-01-13T17:24:50.828Z,4.57
2023-01-13T17:27:18.780Z,5.35
2023-01-13T17:29:47.542Z,4.93
2023-01-13T17:32:19.037Z,6.30
2023-01-13T17:34:47.373Z,5.68
2023-01-13T17:37:15.774Z,5.67
2023-01-13T17:39:46.360Z,4.63
2023-01-13T17:42:15.153Z,5.95
2023-01-13T17:44:43.079Z,6.30
2023-01-13T17:47:10.866Z,5.50
2023-01-13T17:49:38.712Z,6.38
2023-01-13T17:52:07.130Z,5.53
2023-01-13T17:54:35.057Z,4.18
2023-01-13T17:57:02.919Z,6.38
2023-01-13T17:59:30.744Z,6.25
2023-01-13T18:01:58.342Z,6.05
2023-01-13T18:04:28.031Z,6.50
2023-01-13T18:06:56.963Z,6.38
2023-01-13T18:09:26.386Z,6.43
2023-01-13T18:11:54.030Z,5.93
2023-01-13T18:14:22.588Z,5.72
2023-01-13T18:16:51.350Z,6.15
2023-01-13T18:19:37.566Z,4.50
2023-01-13T18:22:23.882Z,5.38
2023-01-13T18:25:10.477Z,5.57
2023-01-13T18:27:40.771Z,6.10
2023-01-13T18:30:15.022Z,5.75
2023-01-13T18:35:11.843Z,4.78
2023-01-13T18:37:42.281Z,4.05
2023-01-13T18:40:14.108Z,5.15
2023-01-13T18:42:51.282Z,4.35
2023-01-13T18:45:25.080Z,5.25
2023-01-13T18:47:56.874Z,4.70
2023-01-13T18:50:26.226Z,3.80
2023-01-13T18:52:54.383Z,4.32
2023-01-13T18:55:22.430Z,4.60
2023-01-13T18:57:51.281Z,4.00
2023-01-13T19:00:20.729Z,4.75
2023-01-13T19:05:35.083Z,3.92
2023-01-13T19:10:32.623Z,3.90
2023-01-13T19:13:01.652Z,3.40
2023-01-13T19:15:30.499Z,3.60
2023-01-13T19:17:58.547Z,3.45
2023-01-13T19:20:26.329Z,3.15
2023-01-13T19:22:54.620Z,4.07
2023-01-13T19:25:22.850Z,3.40
2023-01-13T19:27:50.410Z,3.80
2023-01-13T19:30:19.886Z,3.80
2023-01-13T19:32:47.667Z,3.70
2023-01-13T19:35:18.062Z,3.50
2023-01-13T19:37:46.050Z,4.13
2023-01-13T19:40:14.743Z,3.42
2023-01-13T19:43:02.386Z,3.85
2023-01-13T19:45:32.204Z,3.53
2023-01-13T19:48:02.351Z,3.50
2023-01-13T19:50:29.943Z,3.60
2023-01-13T19:52:57.623Z,3.53
2023-01-13T19:55:25.540Z,4.18
2023-01-13T19:57:53.436Z,3.83
2023-01-13T20:00:23.824Z,4.72
2023-01-13T20:02:53.036Z,3.13
2023-01-13T20:05:22.855Z,4.05
2023-01-13T20:07:51.157Z,4.28
2023-01-13T20:10:20.924Z,10.18
2023-01-13T20:12:48.760Z,9.45
2023-01-13T20:15:16.427Z,4.15
2023-01-13T20:17:43.959Z,3.83
2023-01-13T20:20:15.821Z,4.30
2023-01-13T20:22:44.865Z,4.50
2023-01-13T20:25:16.994Z,4.05
2023-01-13T20:27:46.547Z,4.43
2023-01-13T20:32:45.727Z,3.83
2023-01-13T20:35:13.808Z,4.57
2023-01-13T20:37:43.072Z,3.83
2023-01-13T20:40:15.007Z,3.40
2023-01-13T20:42:45.226Z,3.25
2023-01-13T20:45:17.470Z,3.92
2023-01-13T20:47:45.957Z,3.88
2023-01-13T20:50:15.034Z,3.72
2023-01-13T20:52:43.532Z,3.88
2023-01-13T20:55:11.684Z,2.85
2023-01-13T20:57:40.929Z,2.57
2023-01-13T21:00:11.144Z,4.70
2023-01-13T21:02:41.176Z,3.88
2023-01-13T21:05:09.932Z,3.58
2023-01-13T21:07:37.982Z,4.22
2023-01-13T21:10:08.081Z,4.05
2023-01-13T21:15:22.940Z,4.88
2023-01-13T21:18:10.192Z,3.70
2023-01-13T21:20:39.155Z,4.07
2023-01-13T21:25:36.501Z,3.70
2023-01-13T21:28:08.150Z,4.03
2023-01-13T21:30:37.558Z,3.42
2023-01-13T21:38:05.521Z,4.40
2023-01-13T21:40:33.156Z,3.25
2023-01-13T21:43:19.226Z,3.85
2023-01-13T21:46:05.758Z,3.13
2023-01-13T21:48:33.628Z,3.42
2023-01-13T21:51:01.579Z,3.42
2023-01-13T21:53:31.678Z,3.10
2023-01-13T21:55:59.159Z,3.13
2023-01-13T21:58:26.627Z,3.40
2023-01-13T22:00:54.397Z,4.15
2023-01-13T22:03:22.340Z,3.30
2023-01-13T22:05:56.551Z,3.63
2023-01-13T22:08:24.308Z,3.17
2023-01-13T22:10:58.333Z,4.15
2023-01-13T22:13:47.613Z,3.58
2023-01-13T22:16:15.940Z,4.10
2023-01-13T22:18:43.822Z,3.58
2023-01-13T22:21:11.863Z,4.28
2023-01-13T22:23:39.587Z,3.78
2023-01-13T22:26:08.520Z,4.32
2023-01-13T22:28:43.267Z,3.58
2023-01-13T22:31:15.331Z,3.90
2023-01-13T22:33:43.560Z,4.22
2023-01-13T22:36:11.125Z,3.60
2023-01-13T22:38:39.347Z,3.47
2023-01-13T22:41:09.412Z,3.55
2023-01-13T22:43:38.084Z,3.85
2023-01-13T22:46:08.326Z,2.57
2023-01-13T22:48:35.947Z,3.88
2023-01-13T22:51:10.916Z,3.75
2023-01-13T22:53:38.787Z,4.07
2023-01-13T22:56:11.695Z,4.43
2023-01-13T22:58:39.427Z,4.32
2023-01-13T23:01:12.883Z,4.40
2023-01-13T23:03:41.981Z,5.22
2023-01-13T23:08:37.572Z,5.30
2023-01-13T23:11:09.924Z,5.57
2023-01-13T23:13:39.494Z,6.00
2023-01-13T23:18:35.571Z,5.65
2023-01-13T23:21:09.935Z,4.57
2023-01-13T23:23:38.236Z,4.80
2023-01-13T23:26:06.794Z,5.68
2023-01-13T23:28:35.981Z,5.88
2023-01-13T23:31:08.493Z,5.10
2023-01-13T23:33:41.382Z,4.93
2023-01-13T23:36:13.152Z,4.50
2023-01-13T23:38:41.920Z,5.22
2023-01-13T23:41:13.689Z,4.97
2023-01-13T23:43:41.797Z,5.00
2023-01-13T23:46:12.451Z,5.60
2023-01-13T23:48:40.148Z,4.90
2023-01-13T23:51:13.153Z,5.70
2023-01-13T23:53:43.537Z,5.65
2023-01-13T23:56:14.573Z,5.00
2023-01-13T23:58:42.982Z,5.78
